Polonia International Airport
WIMM : now visible

Airfield :











YOU CAN JOIN US ON...

 
LOGIN :

Register | Disclaimer

   EN    FR    IT 

 









Legend :    VFR   Marginal VFR   IFR   Intensive IFR   Very Intensive IFR
Visi :
Ceiling :
>= 8 km
>= 3000ft
5 to 8 km
1000 to 3000 ft
1500m to 5 km
500 to 1000 ft
800 to 1500m
200 to 500 ft
< 800m
< 200 ft
Symbols :   Thunderstorms  Fog  Heavy snow  Heavy precipitations  Wind > 20 kt






- Airport Elevation : 114 ft
- IATA code : MES


WIMM - Polonia International

CURRENT METAR :
  • 211530Z 19003KT 8000 SCT017 27/26 Q1011 NOSIG

EXPIRED METARs :
  • 211500Z 21004KT 8000 SCT017 27/26 Q1011 NOSIG
  • 211430Z 18006KT 7000 FEW017CB SCT018 27/26 Q1011 NOSIG RMK CB TO SW
  • 211400Z 16004KT 5000 HZ FEW017CB SCT018 27/26 Q1011 NOSIG RMK CB TO SW
  • 211330Z 15004KT 5000 HZ FEW017CB SCT018 28/26 Q1010 NOSIG RMK CB TO SW
  • 211300Z 14003KT 4500 HZ FEW017CB SCT018 28/26 Q1010 NOSIG RMK CB TO SW

TAF TAF WIMM
Valid from the 21 at 12:00 until the 22 at 12:00 UTC


211100Z 2112/2212 24004KT 4000 HZ SCT017
BECMG 2121/2123 12006KT
BECMG 2202/2204 04008KT 9000 NSW



MET'MAP, your aeronautical weather chart ! - Copyright ORBIFLY December 2007 - Disclaimer

ORBIFLY MET'MAP TEAM :

Programming & Development : Alexandra Zaïnal
Concept & Development : Baudouin d'Aumeries
Co-Development & Prog : Marc-Olivier Méhu
Technical & hardware support : Manuel Goepfert

Contact : metmap@orbifly.com




SOURCES & CREDITS :

   NOAA       Earth
Advisory